Time;durP1;ratioP1;P1;durP2;ratioP2;P2;SDS_P1;SDS_P2;PMS_P1;PMS_P2;Temp;Humidity;BMP_temperature;BMP_pressure;BME280_temperature;BME280_humidity;BME280_pressure;Samples;Min_cycle;Max_cycle;Signal;HPM_P1;HPM_P2
2023/12/28 00:00:10;;;;;;;;;;;;;;;;;;5034034;28;19921;-88
2023/12/28 00:02:36;;;;;;;;;;;;;;;;;;5039974;28;19921;-87
2023/12/28 00:05:02;;;;;;;;;;;;;;;;;;5024732;28;19928;-87
2023/12/28 00:07:28;;;;;;;;;;;;;;;;;;5022021;28;20359;-88
2023/12/28 00:09:54;;;;;;;;;;;;;;;;;;5036015;28;20016;-87
2023/12/28 00:12:22;;;;;;;;;;;;;;;;;;5048456;28;20672;-87
2023/12/28 00:14:48;;;;;;;;;;;;;;;;;;5050644;28;19967;-87
2023/12/28 00:17:14;;;;;;;;;;;;;;;;;;5027880;28;19964;-87
2023/12/28 00:19:40;;;;;;;;;;;;;;;;;;5043845;28;19932;-87
2023/12/28 00:22:06;;;;;;;;;;;;;;;;;;5038181;28;19965;-88
2023/12/28 00:24:32;;;;;;;;;;;;;;;;;;5046355;28;19928;-86
2023/12/28 00:26:58;;;;;;;;;;;;;;;;;;5041084;28;19920;-87
2023/12/28 00:29:23;;;;;;;;;;;;;;;;;;5047568;28;20003;-87
2023/12/28 00:31:49;;;;;;;;;;;;;;;;;;5025149;28;19924;-86
2023/12/28 00:34:15;;;;;;;;;;;;;;;;;;5036657;28;19927;-87
2023/12/28 00:36:41;;;;;;;;;;;;;;;;;;5045819;28;20362;-88
2023/12/28 00:39:08;;;;;;;;;;;;;;;;;;5043861;28;20549;-87
2023/12/28 00:41:34;;;;;;;;;;;;;;;;;;5020729;28;20035;-87
2023/12/28 00:44:01;;;;;;;;;;;;;;;;;;5023115;28;19956;-88
2023/12/28 00:46:27;;;;;;;;;;;;;;;;;;5048173;28;19966;-87
2023/12/28 00:48:53;;;;;;;;;;;;;;;;;;5055433;28;19928;-88
2023/12/28 00:51:19;;;;;;;;;;;;;;;;;;5048474;28;19963;-87
2023/12/28 00:53:45;;;;;;;;;;;;;;;;;;5029587;28;20278;-87
2023/12/28 00:56:11;;;;;;;;;;;;;;;;;;5025069;28;19921;-88
2023/12/28 00:58:37;;;;;;;;;;;;;;;;;;5034162;28;19928;-86
2023/12/28 01:01:03;;;;;;;;;;;;;;;;;;5018230;28;19921;-87
2023/12/28 01:03:29;;;;;;;;;;;;;;;;;;5049274;28;20003;-88
2023/12/28 01:05:55;;;;;;;;;;;;;;;;;;5026298;28;19928;-87
2023/12/28 01:08:21;;;;;;;;;;;;;;;;;;5030814;28;19974;-87
2023/12/28 01:10:47;;;;;;;;;;;;;;;;;;5046545;28;19921;-87
2023/12/28 01:13:13;;;;;;;;;;;;;;;;;;5043711;28;20362;-86
2023/12/28 01:15:39;;;;;;;;;;;;;;;;;;5026177;28;19925;-87
2023/12/28 01:18:05;;;;;;;;;;;;;;;;;;5035681;28;19928;-87
2023/12/28 01:20:30;;;;;;;;;;;;;;;;;;5035423;28;19920;-87
2023/12/28 01:22:56;;;;;;;;;;;;;;;;;;5041851;28;19925;-87
2023/12/28 01:25:22;;;;;;;;;;;;;;;;;;5051361;28;19928;-87
2023/12/28 01:27:48;;;;;;;;;;;;;;;;;;5053150;28;20008;-88
2023/12/28 01:30:14;;;;;;;;;;;;;;;;;;5025000;28;20012;-86
2023/12/28 01:32:40;;;;;;;;;;;;;;;;;;5034021;28;19921;-87
2023/12/28 01:35:06;;;;;;;;;;;;;;;;;;5030483;28;19967;-87
2023/12/28 01:37:33;;;;;;;;;;;;;;;;;;5027259;28;20015;-87
2023/12/28 01:39:59;;;;;;;;;;;;;;;;;;5034367;28;19971;-88
2023/12/28 01:42:25;;;;;;;;;;;;;;;;;;5030502;28;19920;-86
2023/12/28 01:44:51;;;;;;;;;;;;;;;;;;5050407;28;20011;-87
2023/12/28 01:47:17;;;;;;;;;;;;;;;;;;5031977;28;19928;-88
2023/12/28 01:49:43;;;;;;;;;;;;;;;;;;5045033;28;19999;-86
2023/12/28 01:52:09;;;;;;;;;;;;;;;;;;5041326;28;19921;-86
2023/12/28 01:54:35;;;;;;;;;;;;;;;;;;5049155;28;19925;-86
2023/12/28 01:57:01;;;;;;;;;;;;;;;;;;5051952;28;19940;-87
2023/12/28 01:59:27;;;;;;;;;;;;;;;;;;5052984;28;19927;-87
2023/12/28 02:01:53;;;;;;;;;;;;;;;;;;5036770;28;19920;-86
2023/12/28 02:04:26;;;;;;;;;;;;;;;;;;5041705;28;20006;-86
2023/12/28 02:06:51;;;;;;;;;;;;;;;;;;5061140;28;19955;-86
2023/12/28 02:09:17;;;;;;;;;;;;;;;;;;5029652;28;19921;-87
2023/12/28 02:11:43;;;;;;;;;;;;;;;;;;5023570;28;19924;-87
2023/12/28 02:14:10;;;;;;;;;;;;;;;;;;5031223;28;19925;-87
2023/12/28 02:16:35;;;;;;;;;;;;;;;;;;5043910;28;19955;-87
2023/12/28 02:19:01;;;;;;;;;;;;;;;;;;5052782;28;19924;-87
2023/12/28 02:21:27;;;;;;;;;;;;;;;;;;5026407;28;19927;-87
2023/12/28 02:23:53;;;;;;;;;;;;;;;;;;5035367;28;19921;-87
2023/12/28 02:26:19;;;;;;;;;;;;;;;;;;5036103;28;19924;-86
2023/12/28 02:28:45;;;;;;;;;;;;;;;;;;5035419;28;20384;-88
2023/12/28 02:31:11;;;;;;;;;;;;;;;;;;5033553;28;20007;-87
2023/12/28 02:33:37;;;;;;;;;;;;;;;;;;5037789;28;20012;-87
2023/12/28 02:36:04;;;;;;;;;;;;;;;;;;5041175;28;19921;-87
2023/12/28 02:38:30;;;;;;;;;;;;;;;;;;5057281;28;19971;-87
2023/12/28 02:40:56;;;;;;;;;;;;;;;;;;5044178;28;19925;-86
2023/12/28 02:43:22;;;;;;;;;;;;;;;;;;5034900;28;20008;-86
2023/12/28 02:45:48;;;;;;;;;;;;;;;;;;5025152;28;19921;-86
2023/12/28 02:48:14;;;;;;;;;;;;;;;;;;5027544;28;19923;-86
2023/12/28 02:50:40;;;;;;;;;;;;;;;;;;5041021;28;20374;-86
2023/12/28 02:53:05;;;;;;;;;;;;;;;;;;5029865;28;19924;-86
2023/12/28 02:55:31;;;;;;;;;;;;;;;;;;5025063;28;19920;-86
2023/12/28 02:58:00;;;;;;;;;;;;;;;;;;5058327;28;20280;-87
2023/12/28 03:00:26;;;;;;;;;;;;;;;;;;5055422;28;19926;-84
2023/12/28 03:02:52;;;;;;;;;;;;;;;;;;5051958;28;20274;-86
2023/12/28 03:05:18;;;;;;;;;;;;;;;;;;5027542;28;20100;-87
2023/12/28 03:07:45;;;;;;;;;;;;;;;;;;5033675;28;19921;-86
2023/12/28 03:10:11;;;;;;;;;;;;;;;;;;5017509;28;19925;-86
2023/12/28 03:12:37;;;;;;;;;;;;;;;;;;5020261;28;19921;-87
2023/12/28 03:15:03;;;;;;;;;;;;;;;;;;5040880;28;19921;-87
2023/12/28 03:17:30;;;;;;;;;;;;;;;;;;5039900;28;19928;-87
2023/12/28 03:19:56;;;;;;;;;;;;;;;;;;5046260;28;19952;-86
2023/12/28 03:22:22;;;;;;;;;;;;;;;;;;5032878;28;19948;-86
2023/12/28 03:24:48;;;;;;;;;;;;;;;;;;5047141;28;19928;-87
2023/12/28 03:27:14;;;;;;;;;;;;;;;;;;5021631;28;19921;-87
2023/12/28 03:29:40;;;;;;;;;;;;;;;;;;5035113;28;19964;-87
2023/12/28 03:32:06;;;;;;;;;;;;;;;;;;5051138;28;19921;-87
2023/12/28 03:34:32;;;;;;;;;;;;;;;;;;5043930;28;19927;-88
2023/12/28 03:36:58;;;;;;;;;;;;;;;;;;5031927;28;19921;-87
2023/12/28 03:39:24;;;;;;;;;;;;;;;;;;5043194;28;19974;-87
2023/12/28 03:41:52;;;;;;;;;;;;;;;;;;5051101;28;19920;-86
2023/12/28 03:44:18;;;;;;;;;;;;;;;;;;5042323;28;19921;-86
2023/12/28 03:46:44;;;;;;;;;;;;;;;;;;5033625;28;19974;-87
2023/12/28 03:49:10;;;;;;;;;;;;;;;;;;5026067;28;19924;-86
2023/12/28 03:51:36;;;;;;;;;;;;;;;;;;5026714;28;19921;-86
2023/12/28 03:54:02;;;;;;;;;;;;;;;;;;5049481;28;19920;-86
2023/12/28 03:56:30;;;;;;;;;;;;;;;;;;5041717;28;19928;-87
2023/12/28 03:58:56;;;;;;;;;;;;;;;;;;5034362;28;19987;-86
2023/12/28 04:01:22;;;;;;;;;;;;;;;;;;5035879;28;20373;-86
2023/12/28 04:03:47;;;;;;;;;;;;;;;;;;5039373;28;20365;-86
2023/12/28 04:06:14;;;;;;;;;;;;;;;;;;5043664;28;19921;-85
2023/12/28 04:08:40;;;;;;;;;;;;;;;;;;5025648;28;19925;-87
2023/12/28 04:11:06;;;;;;;;;;;;;;;;;;5030597;28;19927;-87
2023/12/28 04:13:32;;;;;;;;;;;;;;;;;;5061653;28;19920;-86
2023/12/28 04:15:58;;;;;;;;;;;;;;;;;;5037259;28;20388;-87
2023/12/28 04:18:24;;;;;;;;;;;;;;;;;;5025354;28;19927;-86
2023/12/28 04:20:50;;;;;;;;;;;;;;;;;;5043922;28;19925;-87
2023/12/28 04:23:15;;;;;;;;;;;;;;;;;;5023140;28;19942;-86
2023/12/28 04:25:41;;;;;;;;;;;;;;;;;;5042582;28;19925;-86
2023/12/28 04:28:07;;;;;;;;;;;;;;;;;;5017850;28;20015;-86
2023/12/28 04:30:33;;;;;;;;;;;;;;;;;;5018796;28;20317;-87
2023/12/28 04:32:59;;;;;;;;;;;;;;;;;;5038070;28;20120;-87
2023/12/28 04:35:25;;;;;;;;;;;;;;;;;;5034262;28;19921;-87
2023/12/28 04:37:51;;;;;;;;;;;;;;;;;;5044025;28;19971;-86
2023/12/28 04:40:17;;;;;;;;;;;;;;;;;;5044101;28;19921;-87
2023/12/28 04:42:43;;;;;;;;;;;;;;;;;;5019672;28;19921;-87
2023/12/28 04:45:12;;;;;;;;;;;;;;;;;;5020187;28;19931;-87
2023/12/28 04:47:38;;;;;;;;;;;;;;;;;;5024022;28;19921;-87
2023/12/28 04:50:04;;;;;;;;;;;;;;;;;;5045296;28;20350;-87
2023/12/28 04:52:30;;;;;;;;;;;;;;;;;;5046034;28;20177;-87
2023/12/28 04:54:56;;;;;;;;;;;;;;;;;;5055573;28;20444;-88
2023/12/28 04:57:24;;;;;;;;;;;;;;;;;;5043489;28;19979;-88
2023/12/28 04:59:50;;;;;;;;;;;;;;;;;;5037533;28;19932;-87
2023/12/28 05:02:16;;;;;;;;;;;;;;;;;;5018067;28;19921;-87
2023/12/28 05:04:42;;;;;;;;;;;;;;;;;;5038250;28;19928;-86
2023/12/28 05:07:08;;;;;;;;;;;;;;;;;;5033339;28;20190;-87
2023/12/28 05:09:34;;;;;;;;;;;;;;;;;;5026513;28;19931;-87
2023/12/28 05:12:00;;;;;;;;;;;;;;;;;;5026164;28;19924;-86
2023/12/28 05:14:26;;;;;;;;;;;;;;;;;;5027630;28;20350;-87
2023/12/28 05:16:52;;;;;;;;;;;;;;;;;;5034534;28;19928;-87
2023/12/28 05:19:18;;;;;;;;;;;;;;;;;;5037661;28;19928;-87
2023/12/28 05:21:44;;;;;;;;;;;;;;;;;;5034337;28;19921;-86
2023/12/28 05:24:10;;;;;;;;;;;;;;;;;;5033653;28;20297;-87
2023/12/28 05:26:36;;;;;;;;;;;;;;;;;;5019040;28;19921;-86
2023/12/28 05:29:02;;;;;;;;;;;;;;;;;;5032612;28;19956;-87
2023/12/28 05:31:28;;;;;;;;;;;;;;;;;;5066306;28;19963;-87
2023/12/28 05:33:54;;;;;;;;;;;;;;;;;;5057195;28;19921;-87
2023/12/28 05:36:20;;;;;;;;;;;;;;;;;;5032095;28;20438;-87
2023/12/28 05:38:46;;;;;;;;;;;;;;;;;;5044484;28;20047;-86
2023/12/28 05:41:11;;;;;;;;;;;;;;;;;;5037571;28;19928;-87
2023/12/28 05:43:39;;;;;;;;;;;;;;;;;;5053921;28;19925;-87
2023/12/28 05:46:05;;;;;;;;;;;;;;;;;;5036376;28;19935;-87
2023/12/28 05:48:31;;;;;;;;;;;;;;;;;;5031120;28;19925;-87
2023/12/28 05:50:57;;;;;;;;;;;;;;;;;;5022322;28;19921;-86
2023/12/28 05:53:23;;;;;;;;;;;;;;;;;;5024155;28;19921;-86
2023/12/28 05:55:49;;;;;;;;;;;;;;;;;;5040989;28;19983;-86
2023/12/28 05:58:15;;;;;;;;;;;;;;;;;;5025594;28;19964;-86
2023/12/28 06:00:42;;;;;;;;;;;;;;;;;;5016613;28;19921;-86
2023/12/28 06:03:08;;;;;;;;;;;;;;;;;;5033594;28;20389;-86
2023/12/28 06:05:34;;;;;;;;;;;;;;;;;;5054517;28;19920;-86
2023/12/28 06:08:00;;;;;;;;;;;;;;;;;;5043263;28;19931;-86
2023/12/28 06:10:26;;;;;;;;;;;;;;;;;;5033910;28;20297;-86
2023/12/28 06:12:52;;;;;;;;;;;;;;;;;;5036725;28;19928;-86
2023/12/28 06:15:18;;;;;;;;;;;;;;;;;;5045519;28;20003;-86
2023/12/28 06:17:44;;;;;;;;;;;;;;;;;;5020015;28;19921;-86
2023/12/28 06:20:10;;;;;;;;;;;;;;;;;;5043483;28;19931;-86
2023/12/28 06:22:36;;;;;;;;;;;;;;;;;;5030306;28;20359;-87
2023/12/28 06:25:03;;;;;;;;;;;;;;;;;;5037481;28;19924;-86
2023/12/28 06:27:29;;;;;;;;;;;;;;;;;;5032448;28;19921;-85
2023/12/28 06:29:55;;;;;;;;;;;;;;;;;;5016604;28;20377;-86
2023/12/28 06:32:21;;;;;;;;;;;;;;;;;;5016435;28;19968;-86
2023/12/28 06:34:47;;;;;;;;;;;;;;;;;;5019076;28;19944;-85
2023/12/28 06:37:13;;;;;;;;;;;;;;;;;;5050161;28;19921;-86
2023/12/28 06:39:39;;;;;;;;;;;;;;;;;;5035796;28;19921;-86
2023/12/28 06:42:04;;;;;;;;;;;;;;;;;;5038373;28;19921;-86
2023/12/28 06:44:30;;;;;;;;;;;;;;;;;;5055785;28;20380;-85
2023/12/28 06:46:56;;;;;;;;;;;;;;;;;;5044496;28;20362;-85
2023/12/28 06:49:22;;;;;;;;;;;;;;;;;;5042368;28;19928;-85
2023/12/28 06:51:48;;;;;;;;;;;;;;;;;;5037500;28;19920;-86
2023/12/28 06:54:15;;;;;;;;;;;;;;;;;;5051389;28;19959;-85
2023/12/28 06:56:41;;;;;;;;;;;;;;;;;;5026820;28;20284;-86
2023/12/28 06:59:07;;;;;;;;;;;;;;;;;;5038552;28;20000;-86
2023/12/28 07:01:33;;;;;;;;;;;;;;;;;;5035596;28;19971;-85
2023/12/28 07:03:59;;;;;;;;;;;;;;;;;;5035534;28;20025;-85
2023/12/28 07:06:25;;;;;;;;;;;;;;;;;;5033954;28;19921;-86
2023/12/28 07:08:51;;;;;;;;;;;;;;;;;;5044941;28;19940;-86
2023/12/28 07:11:17;;;;;;;;;;;;;;;;;;5039338;28;20008;-86
2023/12/28 07:13:43;;;;;;;;;;;;;;;;;;5016765;28;19921;-88
2023/12/28 07:16:09;;;;;;;;;;;;;;;;;;5056536;28;19930;-87
2023/12/28 07:18:35;;;;;;;;;;;;;;;;;;5036692;28;19921;-83
2023/12/28 07:21:01;;;;;;;;;;;;;;;;;;5041551;28;20374;-85
2023/12/28 07:23:27;;;;;;;;;;;;;;;;;;5050032;28;19925;-85
2023/12/28 07:25:53;;;;;;;;;;;;;;;;;;5040868;28;20006;-85
2023/12/28 07:28:19;;;;;;;;;;;;;;;;;;5042376;28;20008;-85
2023/12/28 07:30:45;;;;;;;;;;;;;;;;;;5042818;28;19921;-86
2023/12/28 07:33:11;;;;;;;;;;;;;;;;;;5031984;28;19921;-86
2023/12/28 07:35:37;;;;;;;;;;;;;;;;;;5014115;28;19955;-86
2023/12/28 07:38:03;;;;;;;;;;;;;;;;;;5040644;28;20480;-86
2023/12/28 07:40:29;;;;;;;;;;;;;;;;;;5039698;28;20331;-85
2023/12/28 07:42:56;;;;;;;;;;;;;;;;;;5033506;28;19928;-86
2023/12/28 07:45:24;;;;;;;;;;;;;;;;;;5031825;28;19927;-86
2023/12/28 07:47:50;;;;;;;;;;;;;;;;;;5034606;28;20305;-86
2023/12/28 07:50:16;;;;;;;;;;;;;;;;;;5024639;28;20281;-86
2023/12/28 07:52:42;;;;;;;;;;;;;;;;;;5040077;28;20012;-85
2023/12/28 07:55:08;;;;;;;;;;;;;;;;;;5023227;28;20362;-82
2023/12/28 07:57:36;;;;;;;;;;;;;;;;;;5033333;28;19921;-86
2023/12/28 08:00:03;;;;;;;;;;;;;;;;;;5056566;28;20446;-84
2023/12/28 08:02:29;;;;;;;;;;;;;;;;;;5035113;28;19921;-82
2023/12/28 08:04:55;;;;;;;;;;;;;;;;;;5051305;28;19923;-87
2023/12/28 08:07:21;;;;;;;;;;;;;;;;;;5034548;28;19921;-84
2023/12/28 08:09:47;;;;;;;;;;;;;;;;;;5049387;28;19920;-84
2023/12/28 08:12:13;;;;;;;;;;;;;;;;;;5023534;28;19921;-87
2023/12/28 08:14:39;;;;;;;;;;;;;;;;;;5021202;28;19928;-83
2023/12/28 08:17:05;;;;;;;;;;;;;;;;;;5042272;28;19925;-84
2023/12/28 08:19:31;;;;;;;;;;;;;;;;;;5040390;28;19921;-85
2023/12/28 08:21:57;;;;;;;;;;;;;;;;;;5025754;28;20476;-84
2023/12/28 08:24:23;;;;;;;;;;;;;;;;;;5018497;28;19944;-85
2023/12/28 08:26:49;;;;;;;;;;;;;;;;;;5041500;28;20004;-85
2023/12/28 08:29:15;;;;;;;;;;;;;;;;;;5029778;28;19943;-85
2023/12/28 08:31:41;;;;;;;;;;;;;;;;;;5029942;28;19924;-91
2023/12/28 08:34:07;;;;;;;;;;;;;;;;;;5050098;28;19963;-84
2023/12/28 08:36:34;;;;;;;;;;;;;;;;;;5028003;28;19928;-80
2023/12/28 08:39:19;;;;;;;;;;;;;;;;;;5034671;28;19931;-85
2023/12/28 08:41:45;;;;;;;;;;;;;;;;;;5030919;28;20361;-83
2023/12/28 08:44:11;;;;;;;;;;;;;;;;;;5037108;28;19921;-84
2023/12/28 08:46:36;;;;;;;;;;;;;;;;;;5033460;28;19927;-85
2023/12/28 08:49:02;;;;;;;;;;;;;;;;;;5027186;28;19921;-86
2023/12/28 08:51:28;;;;;;;;;;;;;;;;;;5036861;28;19935;-84
2023/12/28 08:53:54;;;;;;;;;;;;;;;;;;5053084;28;20015;-89
2023/12/28 08:56:20;;;;;;;;;;;;;;;;;;5051468;28;19947;-86
2023/12/28 08:58:47;;;;;;;;;;;;;;;;;;5028560;28;20358;-87
2023/12/28 09:01:13;;;;;;;;;;;;;;;;;;5026514;28;20283;-85
2023/12/28 09:03:39;;;;;;;;;;;;;;;;;;5029993;28;19920;-90
2023/12/28 09:06:05;;;;;;;;;;;;;;;;;;5027349;28;19971;-86
2023/12/28 09:08:30;;;;;;;;;;;;;;;;;;5047649;28;19921;-87
2023/12/28 09:10:56;;;;;;;;;;;;;;;;;;5043833;28;19956;-85
2023/12/28 09:13:22;;;;;;;;;;;;;;;;;;5018505;28;19921;-81
2023/12/28 09:15:50;;;;;;;;;;;;;;;;;;5024872;28;19987;-81
2023/12/28 09:18:17;;;;;;;;;;;;;;;;;;5041739;28;19928;-84
2023/12/28 09:20:43;;;;;;;;;;;;;;;;;;5030422;28;20377;-81
2023/12/28 09:23:10;;;;;;;;;;;;;;;;;;5037626;28;19974;-86
2023/12/28 09:25:38;;;;;;;;;;;;;;;;;;5053831;28;19990;-85
2023/12/28 09:28:04;;;;;;;;;;;;;;;;;;5036517;28;19920;-85
2023/12/28 09:30:30;;;;;;;;;;;;;;;;;;5062364;28;20409;-86
2023/12/28 09:32:56;;;;;;;;;;;;;;;;;;5073773;28;19967;-86
2023/12/28 09:35:22;;;;;;;;;;;;;;;;;;5073746;28;19942;-87
2023/12/28 09:37:48;;;;;;;;;;;;;;;;;;5071849;28;19930;-91
2023/12/28 09:40:15;;;;;;;;;;;;;;;;;;5036553;28;19920;-84
2023/12/28 09:42:41;;;;;;;;;;;;;;;;;;5051966;28;19921;-82
2023/12/28 09:45:07;;;;;;;;;;;;;;;;;;5036065;28;19927;-84
2023/12/28 09:47:34;;;;;;;;;;;;;;;;;;5037912;28;19991;-85
2023/12/28 09:50:00;;;;;;;;;;;;;;;;;;5051988;28;19924;-85
2023/12/28 09:52:26;;;;;;;;;;;;;;;;;;5052994;28;19920;-85
2023/12/28 09:54:52;;;;;;;;;;;;;;;;;;5052076;28;19921;-84
2023/12/28 09:57:18;;;;;;;;;;;;;;;;;;5070026;28;20357;-85
2023/12/28 09:59:44;;;;;;;;;;;;;;;;;;5072111;28;20410;-83
2023/12/28 10:02:09;;;;;;;;;;;;;;;;;;5055669;28;20089;-85
2023/12/28 10:04:36;;;;;;;;;;;;;;;;;;5035295;28;19967;-86
2023/12/28 10:07:02;;;;;;;;;;;;;;;;;;5060663;28;20011;-84
2023/12/28 10:09:28;;;;;;;;;;;;;;;;;;5037073;28;20381;-85
2023/12/28 10:11:53;;;;;;;;;;;;;;;;;;5051872;28;20316;-85
2023/12/28 10:14:19;;;;;;;;;;;;;;;;;;5050922;28;19928;-85
2023/12/28 10:16:45;;;;;;;;;;;;;;;;;;5035064;28;20288;-84
2023/12/28 10:19:11;;;;;;;;;;;;;;;;;;5033052;28;19921;-85
2023/12/28 10:21:37;;;;;;;;;;;;;;;;;;5034763;28;19964;-84
2023/12/28 10:24:03;;;;;;;;;;;;;;;;;;5051057;28;19927;-85
2023/12/28 10:26:29;;;;;;;;;;;;;;;;;;5035339;28;19935;-82
2023/12/28 10:28:55;;;;;;;;;;;;;;;;;;5051234;28;19974;-85
2023/12/28 10:31:21;;;;;;;;;;;;;;;;;;5043038;28;19963;-83
2023/12/28 10:33:47;;;;;;;;;;;;;;;;;;5035779;28;19920;-83
2023/12/28 10:36:13;;;;;;;;;;;;;;;;;;5034705;28;19927;-82
2023/12/28 10:38:39;;;;;;;;;;;;;;;;;;5051717;28;19921;-83
2023/12/28 10:41:05;;;;;;;;;;;;;;;;;;5050825;28;19920;-85
2023/12/28 10:43:31;;;;;;;;;;;;;;;;;;5046630;28;19924;-83
2023/12/28 10:45:57;;;;;;;;;;;;;;;;;;5051763;28;19929;-84
2023/12/28 10:48:23;;;;;;;;;;;;;;;;;;5035265;28;19971;-85
2023/12/28 10:50:49;;;;;;;;;;;;;;;;;;5059854;28;20364;-84
2023/12/28 10:53:15;;;;;;;;;;;;;;;;;;5071435;28;19920;-85
2023/12/28 10:55:41;;;;;;;;;;;;;;;;;;5052341;28;19999;-83
2023/12/28 10:58:07;;;;;;;;;;;;;;;;;;5034202;28;20271;-81
2023/12/28 11:00:33;;;;;;;;;;;;;;;;;;5051429;28;19999;-88
2023/12/28 11:02:59;;;;;;;;;;;;;;;;;;5035118;28;20358;-84
2023/12/28 11:05:25;;;;;;;;;;;;;;;;;;5051479;28;20304;-85
2023/12/28 11:07:56;;;;;;;;;;;;;;;;;;5035092;28;19921;-85
2023/12/28 11:10:23;;;;;;;;;;;;;;;;;;5050611;28;20373;-85
2023/12/28 11:12:49;;;;;;;;;;;;;;;;;;5050527;28;19943;-85
2023/12/28 11:15:15;;;;;;;;;;;;;;;;;;5039432;28;19921;-81
2023/12/28 11:17:41;;;;;;;;;;;;;;;;;;5053934;28;19920;-83
2023/12/28 11:20:07;;;;;;;;;;;;;;;;;;5063970;28;19943;-83
2023/12/28 11:22:33;;;;;;;;;;;;;;;;;;5051800;28;20015;-84
2023/12/28 11:24:59;;;;;;;;;;;;;;;;;;5050835;28;19927;-82
2023/12/28 11:27:24;;;;;;;;;;;;;;;;;;5032158;28;19966;-83
2023/12/28 11:29:51;;;;;;;;;;;;;;;;;;5034871;28;19925;-83
2023/12/28 11:32:17;;;;;;;;;;;;;;;;;;5050938;28;20358;-83
2023/12/28 11:34:43;;;;;;;;;;;;;;;;;;5034218;28;19974;-82
2023/12/28 11:37:10;;;;;;;;;;;;;;;;;;5050800;28;19928;-82
2023/12/28 11:39:36;;;;;;;;;;;;;;;;;;5068616;28;19924;-82
2023/12/28 11:42:05;;;;;;;;;;;;;;;;;;5053788;28;19920;-82
2023/12/28 11:44:31;;;;;;;;;;;;;;;;;;5070236;28;19942;-83
2023/12/28 11:46:57;;;;;;;;;;;;;;;;;;5054254;28;20357;-83
2023/12/28 11:49:23;;;;;;;;;;;;;;;;;;5050167;28;20545;-87
2023/12/28 11:51:49;;;;;;;;;;;;;;;;;;5047993;28;19927;-83
2023/12/28 11:54:16;;;;;;;;;;;;;;;;;;5028413;28;19928;-84
2023/12/28 11:56:42;;;;;;;;;;;;;;;;;;5046036;28;19928;-83
2023/12/28 11:59:08;;;;;;;;;;;;;;;;;;5038910;28;19921;-83
2023/12/28 12:01:34;;;;;;;;;;;;;;;;;;5041241;28;20388;-83
2023/12/28 12:04:00;;;;;;;;;;;;;;;;;;5034527;28;19920;-82
2023/12/28 12:06:26;;;;;;;;;;;;;;;;;;5033096;28;19979;-83
2023/12/28 12:08:51;;;;;;;;;;;;;;;;;;5037555;28;19921;-83
2023/12/28 12:11:18;;;;;;;;;;;;;;;;;;5027067;28;19948;-83
2023/12/28 12:13:44;;;;;;;;;;;;;;;;;;5051568;28;20007;-84
2023/12/28 12:16:10;;;;;;;;;;;;;;;;;;5038770;28;19931;-83
2023/12/28 12:18:36;;;;;;;;;;;;;;;;;;5032833;28;19970;-84
2023/12/28 12:21:08;;;;;;;;;;;;;;;;;;5044358;28;19927;-84
2023/12/28 12:23:34;;;;;;;;;;;;;;;;;;5040949;28;19925;-82
2023/12/28 12:26:00;;;;;;;;;;;;;;;;;;5035917;28;20489;-82
2023/12/28 12:28:27;;;;;;;;;;;;;;;;;;5053005;28;19928;-83
2023/12/28 12:30:53;;;;;;;;;;;;;;;;;;5036469;28;19971;-83
2023/12/28 12:33:20;;;;;;;;;;;;;;;;;;5025227;28;19921;-82
2023/12/28 12:35:50;;;;;;;;;;;;;;;;;;5042892;28;19921;-84
2023/12/28 12:38:16;;;;;;;;;;;;;;;;;;5046253;28;19928;-83
2023/12/28 12:40:42;;;;;;;;;;;;;;;;;;5039098;28;19920;-82
2023/12/28 12:43:08;;;;;;;;;;;;;;;;;;5036564;28;20362;-82
2023/12/28 12:45:35;;;;;;;;;;;;;;;;;;5036816;28;19922;-83
2023/12/28 12:48:01;;;;;;;;;;;;;;;;;;5055398;28;19924;-83
2023/12/28 12:50:27;;;;;;;;;;;;;;;;;;5035841;28;19942;-82
2023/12/28 12:52:53;;;;;;;;;;;;;;;;;;5054200;28;20348;-82
2023/12/28 12:55:19;;;;;;;;;;;;;;;;;;5041471;28;19955;-83
2023/12/28 12:57:45;;;;;;;;;;;;;;;;;;5036028;28;19920;-82
2023/12/28 13:00:11;;;;;;;;;;;;;;;;;;5051786;28;19925;-85
2023/12/28 13:02:37;;;;;;;;;;;;;;;;;;5053530;28;19998;-84
2023/12/28 13:05:04;;;;;;;;;;;;;;;;;;5036340;28;19920;-84
2023/12/28 13:07:30;;;;;;;;;;;;;;;;;;5036250;28;19924;-84
2023/12/28 13:09:56;;;;;;;;;;;;;;;;;;5040027;28;20012;-83
2023/12/28 13:12:24;;;;;;;;;;;;;;;;;;5052128;28;20369;-84
2023/12/28 13:14:50;;;;;;;;;;;;;;;;;;5059385;28;19926;-83
2023/12/28 13:17:19;;;;;;;;;;;;;;;;;;5043037;28;19973;-84
2023/12/28 13:19:45;;;;;;;;;;;;;;;;;;5050207;28;19977;-84
2023/12/28 13:22:11;;;;;;;;;;;;;;;;;;5026956;28;20458;-84
2023/12/28 13:24:37;;;;;;;;;;;;;;;;;;5031806;28;19925;-81
2023/12/28 13:27:10;;;;;;;;;;;;;;;;;;5052512;28;19956;-81
2023/12/28 13:29:37;;;;;;;;;;;;;;;;;;5032764;28;20050;-81
2023/12/28 13:32:10;;;;;;;;;;;;;;;;;;5036262;28;19970;-86
2023/12/28 13:34:42;;;;;;;;;;;;;;;;;;5035649;28;20438;-82
2023/12/28 13:37:08;;;;;;;;;;;;;;;;;;5048789;28;19920;-83
2023/12/28 13:39:38;;;;;;;;;;;;;;;;;;5036758;28;20269;-82
2023/12/28 13:42:04;;;;;;;;;;;;;;;;;;5031787;28;19920;-82
2023/12/28 13:44:30;;;;;;;;;;;;;;;;;;5054280;28;19931;-82
2023/12/28 13:46:56;;;;;;;;;;;;;;;;;;5031488;28;19928;-85
2023/12/28 13:49:22;;;;;;;;;;;;;;;;;;5023418;28;19924;-82
2023/12/28 13:51:49;;;;;;;;;;;;;;;;;;5027743;28;20000;-82
2023/12/28 13:54:15;;;;;;;;;;;;;;;;;;5039202;28;20007;-82
2023/12/28 13:56:41;;;;;;;;;;;;;;;;;;5035411;28;20054;-82
2023/12/28 13:59:08;;;;;;;;;;;;;;;;;;5051945;28;20288;-82
2023/12/28 14:01:35;;;;;;;;;;;;;;;;;;5035889;28;19921;-81
2023/12/28 14:04:02;;;;;;;;;;;;;;;;;;5035826;28;19927;-81
2023/12/28 14:06:28;;;;;;;;;;;;;;;;;;5051697;28;20324;-79
2023/12/28 14:08:54;;;;;;;;;;;;;;;;;;5051964;28;19967;-81
2023/12/28 14:11:20;;;;;;;;;;;;;;;;;;5035315;28;19929;-83
2023/12/28 14:13:46;;;;;;;;;;;;;;;;;;5038438;28;19928;-81
2023/12/28 14:16:12;;;;;;;;;;;;;;;;;;5041578;28;19921;-82
2023/12/28 14:18:41;;;;;;;;;;;;;;;;;;5043673;28;20277;-83
2023/12/28 14:21:08;;;;;;;;;;;;;;;;;;5053652;28;19928;-83
2023/12/28 14:23:34;;;;;;;;;;;;;;;;;;5040501;28;19927;-83
2023/12/28 14:26:00;;;;;;;;;;;;;;;;;;5055281;28;19925;-83
2023/12/28 14:28:29;;;;;;;;;;;;;;;;;;5050675;28;20376;-83
2023/12/28 14:30:55;;;;;;;;;;;;;;;;;;5065234;28;19928;-80
2023/12/28 14:33:21;;;;;;;;;;;;;;;;;;5051676;28;19924;-81
2023/12/28 14:35:47;;;;;;;;;;;;;;;;;;5054043;28;19921;-83
2023/12/28 14:38:13;;;;;;;;;;;;;;;;;;5034160;28;19920;-81
2023/12/28 14:40:39;;;;;;;;;;;;;;;;;;5050458;28;20423;-84
2023/12/28 14:43:05;;;;;;;;;;;;;;;;;;5034053;28;19943;-84
2023/12/28 14:45:31;;;;;;;;;;;;;;;;;;5033162;28;20011;-84
2023/12/28 14:47:57;;;;;;;;;;;;;;;;;;5033631;28;19970;-83
2023/12/28 14:50:23;;;;;;;;;;;;;;;;;;5049845;28;19921;-83
2023/12/28 14:52:49;;;;;;;;;;;;;;;;;;5051172;28;19921;-83
2023/12/28 14:55:15;;;;;;;;;;;;;;;;;;5035067;28;19921;-83
2023/12/28 14:57:41;;;;;;;;;;;;;;;;;;5050444;28;19920;-83
2023/12/28 15:00:09;;;;;;;;;;;;;;;;;;5052360;28;20007;-83
2023/12/28 15:02:35;;;;;;;;;;;;;;;;;;5050591;28;19956;-83
2023/12/28 15:05:01;;;;;;;;;;;;;;;;;;5051295;28;19963;-82
2023/12/28 15:07:27;;;;;;;;;;;;;;;;;;5049667;28;19920;-85
2023/12/28 15:09:55;;;;;;;;;;;;;;;;;;5049939;28;20012;-83
2023/12/28 15:12:21;;;;;;;;;;;;;;;;;;5032839;28;19925;-83
2023/12/28 15:14:47;;;;;;;;;;;;;;;;;;5049941;28;20007;-83
2023/12/28 15:17:13;;;;;;;;;;;;;;;;;;5031365;28;19921;-83
2023/12/28 15:19:39;;;;;;;;;;;;;;;;;;5051113;28;19943;-83
2023/12/28 15:22:05;;;;;;;;;;;;;;;;;;5034079;28;20008;-83
2023/12/28 15:24:31;;;;;;;;;;;;;;;;;;5030038;28;19928;-84
2023/12/28 15:26:57;;;;;;;;;;;;;;;;;;5050377;28;19946;-84
2023/12/28 15:29:23;;;;;;;;;;;;;;;;;;5033554;28;20369;-83
2023/12/28 15:31:49;;;;;;;;;;;;;;;;;;5027518;28;20002;-84
2023/12/28 15:34:15;;;;;;;;;;;;;;;;;;5056767;28;19921;-85
2023/12/28 15:36:41;;;;;;;;;;;;;;;;;;5032411;28;20032;-84
2023/12/28 15:39:08;;;;;;;;;;;;;;;;;;5036403;28;20389;-84
2023/12/28 15:41:34;;;;;;;;;;;;;;;;;;5032368;28;19920;-85
2023/12/28 15:44:00;;;;;;;;;;;;;;;;;;5046266;28;20424;-84
2023/12/28 15:46:26;;;;;;;;;;;;;;;;;;5046663;28;20429;-83
2023/12/28 15:48:52;;;;;;;;;;;;;;;;;;5037991;28;20019;-84
2023/12/28 15:51:18;;;;;;;;;;;;;;;;;;5033856;28;19927;-84
2023/12/28 15:53:44;;;;;;;;;;;;;;;;;;5049039;28;19927;-83
2023/12/28 15:56:10;;;;;;;;;;;;;;;;;;5049445;28;20373;-84
2023/12/28 15:58:37;;;;;;;;;;;;;;;;;;5051932;28;19927;-82
2023/12/28 16:01:03;;;;;;;;;;;;;;;;;;5048487;28;19921;-83
2023/12/28 16:03:29;;;;;;;;;;;;;;;;;;5038047;28;19959;-83
2023/12/28 16:05:55;;;;;;;;;;;;;;;;;;5034662;28;20022;-83
2023/12/28 16:08:21;;;;;;;;;;;;;;;;;;5029510;28;19925;-83
2023/12/28 16:10:47;;;;;;;;;;;;;;;;;;5051768;28;19927;-84
2023/12/28 16:13:13;;;;;;;;;;;;;;;;;;5053816;28;19920;-83
2023/12/28 16:15:40;;;;;;;;;;;;;;;;;;5028712;28;19920;-85
2023/12/28 16:18:06;;;;;;;;;;;;;;;;;;5051560;28;20448;-84
2023/12/28 16:20:33;;;;;;;;;;;;;;;;;;5068267;28;20016;-85
2023/12/28 16:22:59;;;;;;;;;;;;;;;;;;5055748;28;19924;-84
2023/12/28 16:25:25;;;;;;;;;;;;;;;;;;5054899;28;20326;-84
2023/12/28 16:27:51;;;;;;;;;;;;;;;;;;5043289;28;19993;-84
2023/12/28 16:30:17;;;;;;;;;;;;;;;;;;5031718;28;19989;-84
2023/12/28 16:32:45;;;;;;;;;;;;;;;;;;5046266;28;19921;-84
2023/12/28 16:35:11;;;;;;;;;;;;;;;;;;5053700;28;19921;-83
2023/12/28 16:37:37;;;;;;;;;;;;;;;;;;5036714;28;19971;-83